sensor_id;sensor_type;location;lat;lon;timestamp;temperature;humidity
7206;DHT22;3644;53.480;10.004;2023-03-31T00:00:25;13.50;99.90
7206;DHT22;3644;53.480;10.004;2023-03-31T00:02:50;13.50;99.90
7206;DHT22;3644;53.480;10.004;2023-03-31T00:05:18;13.50;99.90
7206;DHT22;3644;53.480;10.004;2023-03-31T00:07:46;13.50;99.90
7206;DHT22;3644;53.480;10.004;2023-03-31T00:10:13;13.40;99.90
7206;DHT22;3644;53.480;10.004;2023-03-31T00:12:41;13.50;99.90
7206;DHT22;3644;53.480;10.004;2023-03-31T00:15:07;13.40;99.90
7206;DHT22;3644;53.480;10.004;2023-03-31T00:17:33;13.30;99.90
7206;DHT22;3644;53.480;10.004;2023-03-31T00:19:58;13.30;99.90
7206;DHT22;3644;53.480;10.004;2023-03-31T00:22:29;13.30;99.90
7206;DHT22;3644;53.480;10.004;2023-03-31T00:24:55;13.30;99.90
7206;DHT22;3644;53.480;10.004;2023-03-31T00:27:20;13.40;99.90
7206;DHT22;3644;53.480;10.004;2023-03-31T00:29:46;13.30;99.90
7206;DHT22;3644;53.480;10.004;2023-03-31T00:32:15;13.30;99.90
7206;DHT22;3644;53.480;10.004;2023-03-31T00:34:40;13.30;99.90
7206;DHT22;3644;53.480;10.004;2023-03-31T00:37:06;13.30;99.90
7206;DHT22;3644;53.480;10.004;2023-03-31T00:39:34;13.20;99.90
7206;DHT22;3644;53.480;10.004;2023-03-31T00:42:03;13.30;99.90
7206;DHT22;3644;53.480;10.004;2023-03-31T00:44:30;13.30;99.90
7206;DHT22;3644;53.480;10.004;2023-03-31T00:47:11;13.40;99.90
7206;DHT22;3644;53.480;10.004;2023-03-31T00:49:40;13.30;99.90
7206;DHT22;3644;53.480;10.004;2023-03-31T00:52:19;13.20;99.90
7206;DHT22;3644;53.480;10.004;2023-03-31T00:54:51;13.30;99.90
7206;DHT22;3644;53.480;10.004;2023-03-31T00:57:18;13.30;99.90
7206;DHT22;3644;53.480;10.004;2023-03-31T00:59:48;13.30;99.90
7206;DHT22;3644;53.480;10.004;2023-03-31T01:02:15;13.30;99.90
7206;DHT22;3644;53.480;10.004;2023-03-31T01:04:48;13.30;99.90
7206;DHT22;3644;53.480;10.004;2023-03-31T01:07:24;13.40;99.90
7206;DHT22;3644;53.480;10.004;2023-03-31T01:09:52;13.40;99.90
7206;DHT22;3644;53.480;10.004;2023-03-31T01:12:21;13.40;99.90
7206;DHT22;3644;53.480;10.004;2023-03-31T01:14:49;13.40;99.90
7206;DHT22;3644;53.480;10.004;2023-03-31T01:17:16;13.50;99.90
7206;DHT22;3644;53.480;10.004;2023-03-31T01:23:11;13.50;99.90
7206;DHT22;3644;53.480;10.004;2023-03-31T01:28:41;13.50;99.90
7206;DHT22;3644;53.480;10.004;2023-03-31T01:37:31;13.50;99.90
7206;DHT22;3644;53.480;10.004;2023-03-31T01:40:08;13.50;99.90
7206;DHT22;3644;53.480;10.004;2023-03-31T01:45:42;13.30;99.90
7206;DHT22;3644;53.480;10.004;2023-03-31T01:50:57;13.30;99.90
7206;DHT22;3644;53.480;10.004;2023-03-31T01:53:39;13.30;99.90
7206;DHT22;3644;53.480;10.004;2023-03-31T01:59:10;13.20;99.90
7206;DHT22;3644;53.480;10.004;2023-03-31T02:01:52;13.30;99.90
7206;DHT22;3644;53.480;10.004;2023-03-31T02:04:37;13.20;99.90
7206;DHT22;3644;53.480;10.004;2023-03-31T02:07:08;15.50;99.90
7206;DHT22;3644;53.480;10.004;2023-03-31T02:09:39;13.10;99.90
7206;DHT22;3644;53.480;10.004;2023-03-31T02:12:08;13.10;99.90
7206;DHT22;3644;53.480;10.004;2023-03-31T02:14:37;13.10;99.90
7206;DHT22;3644;53.480;10.004;2023-03-31T02:17:04;13.10;99.90
7206;DHT22;3644;53.480;10.004;2023-03-31T02:19:35;13.00;99.90
7206;DHT22;3644;53.480;10.004;2023-03-31T02:22:04;13.00;99.90
7206;DHT22;3644;53.480;10.004;2023-03-31T02:24:30;13.00;99.90
7206;DHT22;3644;53.480;10.004;2023-03-31T02:27:11;13.00;99.90
7206;DHT22;3644;53.480;10.004;2023-03-31T02:29:40;13.00;99.90
7206;DHT22;3644;53.480;10.004;2023-03-31T02:32:13;13.00;99.90
7206;DHT22;3644;53.480;10.004;2023-03-31T02:34:40;13.10;99.90
7206;DHT22;3644;53.480;10.004;2023-03-31T02:37:06;13.10;99.90
7206;DHT22;3644;53.480;10.004;2023-03-31T02:39:34;13.10;99.90
7206;DHT22;3644;53.480;10.004;2023-03-31T02:42:00;13.00;99.90
7206;DHT22;3644;53.480;10.004;2023-03-31T02:44:35;12.90;99.90
7206;DHT22;3644;53.480;10.004;2023-03-31T02:47:02;12.90;99.90
7206;DHT22;3644;53.480;10.004;2023-03-31T02:49:30;12.90;99.90
7206;DHT22;3644;53.480;10.004;2023-03-31T02:52:20;12.80;99.90
7206;DHT22;3644;53.480;10.004;2023-03-31T02:57:53;12.80;99.90
7206;DHT22;3644;53.480;10.004;2023-03-31T03:09:26;12.70;99.90
7206;DHT22;3644;53.480;10.004;2023-03-31T03:14:43;12.70;99.90
7206;DHT22;3644;53.480;10.004;2023-03-31T03:17:25;12.70;99.90
7206;DHT22;3644;53.480;10.004;2023-03-31T03:19:59;12.70;99.90
7206;DHT22;3644;53.480;10.004;2023-03-31T03:22:24;12.70;99.90
7206;DHT22;3644;53.480;10.004;2023-03-31T03:24:50;12.70;99.90
7206;DHT22;3644;53.480;10.004;2023-03-31T03:27:16;12.60;99.90
7206;DHT22;3644;53.480;10.004;2023-03-31T03:29:42;12.70;99.90
7206;DHT22;3644;53.480;10.004;2023-03-31T03:32:08;12.70;99.90
7206;DHT22;3644;53.480;10.004;2023-03-31T03:34:34;12.70;99.90
7206;DHT22;3644;53.480;10.004;2023-03-31T03:37:00;12.70;99.90
7206;DHT22;3644;53.480;10.004;2023-03-31T03:39:25;12.60;99.90
7206;DHT22;3644;53.480;10.004;2023-03-31T03:41:51;12.60;99.90
7206;DHT22;3644;53.480;10.004;2023-03-31T03:44:16;12.60;99.90
7206;DHT22;3644;53.480;10.004;2023-03-31T03:46:42;12.70;99.90
7206;DHT22;3644;53.480;10.004;2023-03-31T03:49:07;12.70;99.90
7206;DHT22;3644;53.480;10.004;2023-03-31T03:51:33;12.70;99.90
7206;DHT22;3644;53.480;10.004;2023-03-31T03:53:58;12.70;99.90
7206;DHT22;3644;53.480;10.004;2023-03-31T03:56:24;12.70;99.90
7206;DHT22;3644;53.480;10.004;2023-03-31T03:58:50;12.70;99.90
7206;DHT22;3644;53.480;10.004;2023-03-31T04:01:16;12.70;99.90
7206;DHT22;3644;53.480;10.004;2023-03-31T04:03:42;12.70;99.90
7206;DHT22;3644;53.480;10.004;2023-03-31T04:06:08;12.70;99.90
7206;DHT22;3644;53.480;10.004;2023-03-31T04:08:33;12.70;99.90
7206;DHT22;3644;53.480;10.004;2023-03-31T04:10:59;12.60;99.90
7206;DHT22;3644;53.480;10.004;2023-03-31T04:13:24;12.60;99.90
7206;DHT22;3644;53.480;10.004;2023-03-31T04:15:50;12.70;99.90
7206;DHT22;3644;53.480;10.004;2023-03-31T04:18:15;12.70;99.90
7206;DHT22;3644;53.480;10.004;2023-03-31T04:20:50;12.70;99.90
7206;DHT22;3644;53.480;10.004;2023-03-31T04:23:32;12.80;99.90
7206;DHT22;3644;53.480;10.004;2023-03-31T04:25:58;12.80;99.90
7206;DHT22;3644;53.480;10.004;2023-03-31T04:28:24;12.80;99.90
7206;DHT22;3644;53.480;10.004;2023-03-31T04:30:51;12.80;99.90
7206;DHT22;3644;53.480;10.004;2023-03-31T04:33:19;12.90;99.90
7206;DHT22;3644;53.480;10.004;2023-03-31T04:35:45;12.80;99.90
7206;DHT22;3644;53.480;10.004;2023-03-31T04:38:15;12.80;99.90
7206;DHT22;3644;53.480;10.004;2023-03-31T04:40:46;12.80;99.90
7206;DHT22;3644;53.480;10.004;2023-03-31T04:43:11;12.80;99.90
7206;DHT22;3644;53.480;10.004;2023-03-31T04:45:37;12.90;99.90
7206;DHT22;3644;53.480;10.004;2023-03-31T04:48:03;12.90;99.90
7206;DHT22;3644;53.480;10.004;2023-03-31T04:50:28;12.90;99.90
7206;DHT22;3644;53.480;10.004;2023-03-31T04:52:54;12.90;99.90
7206;DHT22;3644;53.480;10.004;2023-03-31T04:55:19;12.90;99.90
7206;DHT22;3644;53.480;10.004;2023-03-31T04:57:45;12.90;99.90
7206;DHT22;3644;53.480;10.004;2023-03-31T05:00:11;13.00;99.90
7206;DHT22;3644;53.480;10.004;2023-03-31T05:02:37;13.00;99.90
7206;DHT22;3644;53.480;10.004;2023-03-31T05:05:03;13.00;99.90
7206;DHT22;3644;53.480;10.004;2023-03-31T05:07:28;13.00;99.90
7206;DHT22;3644;53.480;10.004;2023-03-31T05:09:54;13.00;99.90
7206;DHT22;3644;53.480;10.004;2023-03-31T05:12:20;13.00;99.90
7206;DHT22;3644;53.480;10.004;2023-03-31T05:14:45;13.10;99.90
7206;DHT22;3644;53.480;10.004;2023-03-31T05:17:11;13.00;99.90
7206;DHT22;3644;53.480;10.004;2023-03-31T05:19:36;13.10;99.90
7206;DHT22;3644;53.480;10.004;2023-03-31T05:22:02;13.00;99.90
7206;DHT22;3644;53.480;10.004;2023-03-31T05:24:27;13.10;99.90
7206;DHT22;3644;53.480;10.004;2023-03-31T05:26:55;13.10;99.90
7206;DHT22;3644;53.480;10.004;2023-03-31T05:29:22;13.20;99.90
7206;DHT22;3644;53.480;10.004;2023-03-31T05:31:48;13.20;99.90
7206;DHT22;3644;53.480;10.004;2023-03-31T05:34:14;13.30;99.90
7206;DHT22;3644;53.480;10.004;2023-03-31T05:36:40;13.30;99.90
7206;DHT22;3644;53.480;10.004;2023-03-31T05:39:07;13.30;99.90
7206;DHT22;3644;53.480;10.004;2023-03-31T05:41:33;13.30;99.90
7206;DHT22;3644;53.480;10.004;2023-03-31T05:43:59;13.30;99.90
7206;DHT22;3644;53.480;10.004;2023-03-31T05:46:25;13.30;99.90
7206;DHT22;3644;53.480;10.004;2023-03-31T05:48:51;13.40;99.90
7206;DHT22;3644;53.480;10.004;2023-03-31T05:51:17;13.40;99.90
7206;DHT22;3644;53.480;10.004;2023-03-31T05:53:43;13.40;99.90
7206;DHT22;3644;53.480;10.004;2023-03-31T05:56:09;13.40;99.90
7206;DHT22;3644;53.480;10.004;2023-03-31T05:58:35;13.40;99.90
7206;DHT22;3644;53.480;10.004;2023-03-31T06:01:09;13.40;99.90
7206;DHT22;3644;53.480;10.004;2023-03-31T06:03:37;13.40;99.90
7206;DHT22;3644;53.480;10.004;2023-03-31T06:06:05;13.40;99.90
7206;DHT22;3644;53.480;10.004;2023-03-31T06:08:32;13.40;99.90
7206;DHT22;3644;53.480;10.004;2023-03-31T06:10:58;13.50;99.90
7206;DHT22;3644;53.480;10.004;2023-03-31T06:13:24;13.60;99.90
7206;DHT22;3644;53.480;10.004;2023-03-31T06:15:57;13.60;99.90
7206;DHT22;3644;53.480;10.004;2023-03-31T06:18:25;13.70;99.90
7206;DHT22;3644;53.480;10.004;2023-03-31T06:20:53;13.70;99.90
7206;DHT22;3644;53.480;10.004;2023-03-31T06:23:18;13.70;99.90
7206;DHT22;3644;53.480;10.004;2023-03-31T06:25:44;13.90;99.90
7206;DHT22;3644;53.480;10.004;2023-03-31T06:28:10;14.10;99.90
7206;DHT22;3644;53.480;10.004;2023-03-31T06:30:35;14.20;99.90
7206;DHT22;3644;53.480;10.004;2023-03-31T06:33:01;14.40;99.90
7206;DHT22;3644;53.480;10.004;2023-03-31T06:35:26;14.40;99.90
7206;DHT22;3644;53.480;10.004;2023-03-31T06:37:52;14.50;99.90
7206;DHT22;3644;53.480;10.004;2023-03-31T06:40:17;14.40;99.90
7206;DHT22;3644;53.480;10.004;2023-03-31T06:42:43;14.40;99.90
7206;DHT22;3644;53.480;10.004;2023-03-31T06:45:09;14.40;99.90
7206;DHT22;3644;53.480;10.004;2023-03-31T06:47:34;14.40;99.90
7206;DHT22;3644;53.480;10.004;2023-03-31T06:50:06;14.40;99.90
7206;DHT22;3644;53.480;10.004;2023-03-31T06:52:32;14.50;99.90
7206;DHT22;3644;53.480;10.004;2023-03-31T06:54:57;14.40;99.90
7206;DHT22;3644;53.480;10.004;2023-03-31T06:57:25;14.50;99.90
7206;DHT22;3644;53.480;10.004;2023-03-31T06:59:50;14.70;99.90
7206;DHT22;3644;53.480;10.004;2023-03-31T07:02:16;14.80;99.90
7206;DHT22;3644;53.480;10.004;2023-03-31T07:04:41;14.90;99.90
7206;DHT22;3644;53.480;10.004;2023-03-31T07:07:07;14.90;99.90
7206;DHT22;3644;53.480;10.004;2023-03-31T07:09:32;14.90;99.90
7206;DHT22;3644;53.480;10.004;2023-03-31T07:11:58;14.70;99.90
7206;DHT22;3644;53.480;10.004;2023-03-31T07:14:23;14.70;99.90
7206;DHT22;3644;53.480;10.004;2023-03-31T07:16:49;14.80;99.90
7206;DHT22;3644;53.480;10.004;2023-03-31T07:19:15;14.80;99.90
7206;DHT22;3644;53.480;10.004;2023-03-31T07:21:41;14.90;99.90
7206;DHT22;3644;53.480;10.004;2023-03-31T07:24:06;14.90;99.90
7206;DHT22;3644;53.480;10.004;2023-03-31T07:26:32;14.90;99.90
7206;DHT22;3644;53.480;10.004;2023-03-31T07:28:57;14.90;99.90
7206;DHT22;3644;53.480;10.004;2023-03-31T07:31:23;15.00;99.90
7206;DHT22;3644;53.480;10.004;2023-03-31T07:33:49;14.90;99.90
7206;DHT22;3644;53.480;10.004;2023-03-31T07:36:15;14.80;99.90
7206;DHT22;3644;53.480;10.004;2023-03-31T07:38:44;14.80;99.90
7206;DHT22;3644;53.480;10.004;2023-03-31T07:41:16;14.70;99.90
7206;DHT22;3644;53.480;10.004;2023-03-31T07:43:41;14.70;99.90
7206;DHT22;3644;53.480;10.004;2023-03-31T07:46:20;14.70;99.90
7206;DHT22;3644;53.480;10.004;2023-03-31T07:48:46;14.70;99.90
7206;DHT22;3644;53.480;10.004;2023-03-31T07:51:17;14.70;99.90
7206;DHT22;3644;53.480;10.004;2023-03-31T07:53:43;14.80;99.90
7206;DHT22;3644;53.480;10.004;2023-03-31T07:56:09;14.80;99.90
7206;DHT22;3644;53.480;10.004;2023-03-31T07:58:35;14.80;99.90
7206;DHT22;3644;53.480;10.004;2023-03-31T08:01:00;14.80;99.90
7206;DHT22;3644;53.480;10.004;2023-03-31T08:03:26;14.80;99.90
7206;DHT22;3644;53.480;10.004;2023-03-31T08:05:52;14.80;99.90
7206;DHT22;3644;53.480;10.004;2023-03-31T08:08:18;14.80;99.90
7206;DHT22;3644;53.480;10.004;2023-03-31T08:10:44;14.70;99.90
7206;DHT22;3644;53.480;10.004;2023-03-31T08:13:09;14.80;99.90
7206;DHT22;3644;53.480;10.004;2023-03-31T08:15:35;14.80;99.90
7206;DHT22;3644;53.480;10.004;2023-03-31T08:18:02;14.80;99.90
7206;DHT22;3644;53.480;10.004;2023-03-31T08:20:28;14.80;99.90
7206;DHT22;3644;53.480;10.004;2023-03-31T08:22:53;14.80;99.90
7206;DHT22;3644;53.480;10.004;2023-03-31T08:25:19;14.90;99.90
7206;DHT22;3644;53.480;10.004;2023-03-31T08:27:45;14.90;99.90
7206;DHT22;3644;53.480;10.004;2023-03-31T08:30:15;14.90;99.90
7206;DHT22;3644;53.480;10.004;2023-03-31T08:32:42;14.80;99.90
7206;DHT22;3644;53.480;10.004;2023-03-31T08:35:07;14.80;99.90
7206;DHT22;3644;53.480;10.004;2023-03-31T08:37:34;14.80;99.90
7206;DHT22;3644;53.480;10.004;2023-03-31T08:40:00;14.80;99.90
7206;DHT22;3644;53.480;10.004;2023-03-31T08:42:38;14.80;99.90
7206;DHT22;3644;53.480;10.004;2023-03-31T08:45:40;14.70;99.90
7206;DHT22;3644;53.480;10.004;2023-03-31T08:48:18;14.70;99.90
7206;DHT22;3644;53.480;10.004;2023-03-31T08:50:49;14.70;99.90
7206;DHT22;3644;53.480;10.004;2023-03-31T08:53:41;14.80;99.90
7206;DHT22;3644;53.480;10.004;2023-03-31T08:56:16;14.80;99.90
7206;DHT22;3644;53.480;10.004;2023-03-31T08:58:48;14.70;99.90
7206;DHT22;3644;53.480;10.004;2023-03-31T09:06:55;14.70;99.90
7206;DHT22;3644;53.480;10.004;2023-03-31T09:12:20;14.80;99.90
7206;DHT22;3644;53.480;10.004;2023-03-31T09:15:00;14.80;99.90
7206;DHT22;3644;53.480;10.004;2023-03-31T09:17:28;14.90;99.90
7206;DHT22;3644;53.480;10.004;2023-03-31T09:20:04;14.90;99.90
7206;DHT22;3644;53.480;10.004;2023-03-31T09:22:38;14.90;99.90
7206;DHT22;3644;53.480;10.004;2023-03-31T09:25:30;14.90;99.90
7206;DHT22;3644;53.480;10.004;2023-03-31T09:27:58;15.00;99.90
7206;DHT22;3644;53.480;10.004;2023-03-31T09:30:29;15.10;99.90
7206;DHT22;3644;53.480;10.004;2023-03-31T09:33:16;15.20;99.90
7206;DHT22;3644;53.480;10.004;2023-03-31T09:35:42;15.20;99.90
7206;DHT22;3644;53.480;10.004;2023-03-31T09:38:10;15.20;99.90
7206;DHT22;3644;53.480;10.004;2023-03-31T09:40:36;15.20;99.90
7206;DHT22;3644;53.480;10.004;2023-03-31T09:43:07;15.20;99.90
7206;DHT22;3644;53.480;10.004;2023-03-31T09:45:34;15.20;99.90
7206;DHT22;3644;53.480;10.004;2023-03-31T09:48:03;15.30;99.90
7206;DHT22;3644;53.480;10.004;2023-03-31T09:50:42;15.30;99.90
7206;DHT22;3644;53.480;10.004;2023-03-31T09:53:15;15.50;99.90
7206;DHT22;3644;53.480;10.004;2023-03-31T09:55:53;15.50;99.90
7206;DHT22;3644;53.480;10.004;2023-03-31T09:58:21;15.50;99.90
7206;DHT22;3644;53.480;10.004;2023-03-31T10:01:18;15.60;99.90
7206;DHT22;3644;53.480;10.004;2023-03-31T10:03:52;15.70;99.90
7206;DHT22;3644;53.480;10.004;2023-03-31T10:06:19;15.80;99.90
7206;DHT22;3644;53.480;10.004;2023-03-31T10:09:01;15.90;99.90
7206;DHT22;3644;53.480;10.004;2023-03-31T10:11:28;15.90;99.90
7206;DHT22;3644;53.480;10.004;2023-03-31T10:14:02;15.90;99.90
7206;DHT22;3644;53.480;10.004;2023-03-31T10:18:54;16.10;99.90
7206;DHT22;3644;53.480;10.004;2023-03-31T10:21:24;16.20;99.90
7206;DHT22;3644;53.480;10.004;2023-03-31T10:23:51;16.20;99.90
7206;DHT22;3644;53.480;10.004;2023-03-31T10:26:25;16.20;99.90
7206;DHT22;3644;53.480;10.004;2023-03-31T10:28:52;16.20;99.90
7206;DHT22;3644;53.480;10.004;2023-03-31T10:31:22;16.10;99.90
7206;DHT22;3644;53.480;10.004;2023-03-31T10:33:49;16.10;99.90
7206;DHT22;3644;53.480;10.004;2023-03-31T10:36:24;16.10;99.90
7206;DHT22;3644;53.480;10.004;2023-03-31T10:38:51;16.00;99.90
7206;DHT22;3644;53.480;10.004;2023-03-31T10:41:20;15.90;99.90
7206;DHT22;3644;53.480;10.004;2023-03-31T10:43:51;16.00;99.90
7206;DHT22;3644;53.480;10.004;2023-03-31T10:46:17;16.20;99.90
7206;DHT22;3644;53.480;10.004;2023-03-31T10:48:42;16.20;99.90
7206;DHT22;3644;53.480;10.004;2023-03-31T10:53:49;16.30;99.90
7206;DHT22;3644;53.480;10.004;2023-03-31T11:07:25;16.30;99.90
7206;DHT22;3644;53.480;10.004;2023-03-31T11:10:19;16.30;99.90
7206;DHT22;3644;53.480;10.004;2023-03-31T11:15:34;16.20;99.90
7206;DHT22;3644;53.480;10.004;2023-03-31T11:26:26;16.20;99.90
7206;DHT22;3644;53.480;10.004;2023-03-31T11:29:07;16.20;99.90
7206;DHT22;3644;53.480;10.004;2023-03-31T11:34:27;16.20;99.90
7206;DHT22;3644;53.480;10.004;2023-03-31T11:37:19;16.20;99.90
7206;DHT22;3644;53.480;10.004;2023-03-31T11:39:55;16.20;99.90
7206;DHT22;3644;53.480;10.004;2023-03-31T11:43:03;16.20;99.90
7206;DHT22;3644;53.480;10.004;2023-03-31T11:45:44;16.20;99.90
7206;DHT22;3644;53.480;10.004;2023-03-31T11:50:53;16.00;99.90
7206;DHT22;3644;53.480;10.004;2023-03-31T11:53:26;15.90;99.90
7206;DHT22;3644;53.480;10.004;2023-03-31T11:55:54;15.90;99.90
7206;DHT22;3644;53.480;10.004;2023-03-31T11:58:35;15.90;99.90
7206;DHT22;3644;53.480;10.004;2023-03-31T12:04:32;15.70;99.90
7206;DHT22;3644;53.480;10.004;2023-03-31T12:07:12;15.70;99.90
7206;DHT22;3644;53.480;10.004;2023-03-31T12:12:19;15.60;99.90
7206;DHT22;3644;53.480;10.004;2023-03-31T12:14:54;15.60;99.90
7206;DHT22;3644;53.480;10.004;2023-03-31T12:17:26;15.60;99.90
7206;DHT22;3644;53.480;10.004;2023-03-31T12:20:05;15.60;99.90
7206;DHT22;3644;53.480;10.004;2023-03-31T12:22:42;15.50;99.90
7206;DHT22;3644;53.480;10.004;2023-03-31T12:25:18;15.50;99.90
7206;DHT22;3644;53.480;10.004;2023-03-31T12:27:47;15.40;99.90
7206;DHT22;3644;53.480;10.004;2023-03-31T12:33:00;15.30;99.90
7206;DHT22;3644;53.480;10.004;2023-03-31T12:50:19;15.30;99.90
7206;DHT22;3644;53.480;10.004;2023-03-31T12:55:49;15.50;99.90
7206;DHT22;3644;53.480;10.004;2023-03-31T13:01:07;15.60;99.90
7206;DHT22;3644;53.480;10.004;2023-03-31T13:06:03;16.00;99.90
7206;DHT22;3644;53.480;10.004;2023-03-31T13:14:02;16.20;99.90
7206;DHT22;3644;53.480;10.004;2023-03-31T13:16:29;16.20;99.90
7206;DHT22;3644;53.480;10.004;2023-03-31T13:18:55;16.20;99.90
7206;DHT22;3644;53.480;10.004;2023-03-31T13:21:22;16.20;99.90
7206;DHT22;3644;53.480;10.004;2023-03-31T13:23:48;16.20;99.90
7206;DHT22;3644;53.480;10.004;2023-03-31T13:34:34;16.40;99.90
7206;DHT22;3644;53.480;10.004;2023-03-31T13:40:25;16.70;99.90
7206;DHT22;3644;53.480;10.004;2023-03-31T13:43:25;16.80;99.90
7206;DHT22;3644;53.480;10.004;2023-03-31T13:51:56;17.00;99.90
7206;DHT22;3644;53.480;10.004;2023-03-31T13:54:49;17.20;99.90
7206;DHT22;3644;53.480;10.004;2023-03-31T14:05:29;17.50;99.90
7206;DHT22;3644;53.480;10.004;2023-03-31T14:07:58;17.40;99.90
7206;DHT22;3644;53.480;10.004;2023-03-31T14:10:32;17.30;99.90
7206;DHT22;3644;53.480;10.004;2023-03-31T14:13:12;17.20;99.90
7206;DHT22;3644;53.480;10.004;2023-03-31T14:15:58;17.20;99.90
7206;DHT22;3644;53.480;10.004;2023-03-31T14:18:33;17.20;99.90
7206;DHT22;3644;53.480;10.004;2023-03-31T14:21:05;17.00;99.90
7206;DHT22;3644;53.480;10.004;2023-03-31T14:26:50;17.20;99.90
7206;DHT22;3644;53.480;10.004;2023-03-31T14:29:39;17.20;99.90
7206;DHT22;3644;53.480;10.004;2023-03-31T14:35:23;17.20;99.90
7206;DHT22;3644;53.480;10.004;2023-03-31T14:37:51;17.20;99.90
7206;DHT22;3644;53.480;10.004;2023-03-31T14:40:18;17.30;99.90
7206;DHT22;3644;53.480;10.004;2023-03-31T14:42:44;17.30;99.90
7206;DHT22;3644;53.480;10.004;2023-03-31T14:45:21;17.40;99.90
7206;DHT22;3644;53.480;10.004;2023-03-31T14:48:12;17.40;99.90
7206;DHT22;3644;53.480;10.004;2023-03-31T14:50:42;17.50;99.90
7206;DHT22;3644;53.480;10.004;2023-03-31T14:53:16;17.40;99.90
7206;DHT22;3644;53.480;10.004;2023-03-31T14:55:44;17.40;99.90
7206;DHT22;3644;53.480;10.004;2023-03-31T14:58:14;17.30;99.90
7206;DHT22;3644;53.480;10.004;2023-03-31T15:00:40;17.30;99.90
7206;DHT22;3644;53.480;10.004;2023-03-31T15:03:08;17.20;99.90
7206;DHT22;3644;53.480;10.004;2023-03-31T15:05:40;17.20;99.90
7206;DHT22;3644;53.480;10.004;2023-03-31T15:08:15;17.10;99.90
7206;DHT22;3644;53.480;10.004;2023-03-31T15:10:44;17.10;99.90
7206;DHT22;3644;53.480;10.004;2023-03-31T15:13:34;17.00;99.90
7206;DHT22;3644;53.480;10.004;2023-03-31T15:16:28;17.00;99.90
7206;DHT22;3644;53.480;10.004;2023-03-31T15:18:56;17.00;99.90
7206;DHT22;3644;53.480;10.004;2023-03-31T15:21:24;16.90;99.90
7206;DHT22;3644;53.480;10.004;2023-03-31T15:23:57;16.90;99.90
7206;DHT22;3644;53.480;10.004;2023-03-31T15:26:33;16.90;99.90
7206;DHT22;3644;53.480;10.004;2023-03-31T15:29:13;16.80;99.90
7206;DHT22;3644;53.480;10.004;2023-03-31T15:31:40;16.80;99.90
7206;DHT22;3644;53.480;10.004;2023-03-31T15:34:21;16.80;99.90
7206;DHT22;3644;53.480;10.004;2023-03-31T15:36:50;16.80;99.90
7206;DHT22;3644;53.480;10.004;2023-03-31T15:39:17;16.80;99.90
7206;DHT22;3644;53.480;10.004;2023-03-31T15:41:45;16.90;99.90
7206;DHT22;3644;53.480;10.004;2023-03-31T15:44:46;16.90;99.90
7206;DHT22;3644;53.480;10.004;2023-03-31T15:47:20;17.00;99.90
7206;DHT22;3644;53.480;10.004;2023-03-31T15:49:57;16.90;99.90
7206;DHT22;3644;53.480;10.004;2023-03-31T15:52:31;16.80;99.90
7206;DHT22;3644;53.480;10.004;2023-03-31T15:54:58;16.80;99.90
7206;DHT22;3644;53.480;10.004;2023-03-31T15:57:34;16.80;99.90
7206;DHT22;3644;53.480;10.004;2023-03-31T16:00:01;16.80;99.90
7206;DHT22;3644;53.480;10.004;2023-03-31T16:02:39;16.80;99.90
7206;DHT22;3644;53.480;10.004;2023-03-31T16:05:06;16.80;99.90
7206;DHT22;3644;53.480;10.004;2023-03-31T16:07:44;16.80;99.90
7206;DHT22;3644;53.480;10.004;2023-03-31T16:10:17;16.90;99.90
7206;DHT22;3644;53.480;10.004;2023-03-31T16:15:18;16.80;99.90
7206;DHT22;3644;53.480;10.004;2023-03-31T16:17:51;16.70;99.90
7206;DHT22;3644;53.480;10.004;2023-03-31T16:22:48;16.50;99.90
7206;DHT22;3644;53.480;10.004;2023-03-31T16:25:20;16.50;99.90
7206;DHT22;3644;53.480;10.004;2023-03-31T16:27:59;16.50;99.90
7206;DHT22;3644;53.480;10.004;2023-03-31T16:30:44;16.40;99.90
7206;DHT22;3644;53.480;10.004;2023-03-31T16:33:17;16.40;99.90
7206;DHT22;3644;53.480;10.004;2023-03-31T16:35:51;16.40;99.90
7206;DHT22;3644;53.480;10.004;2023-03-31T16:38:19;16.30;99.90
7206;DHT22;3644;53.480;10.004;2023-03-31T16:40:47;16.30;99.90
7206;DHT22;3644;53.480;10.004;2023-03-31T16:43:17;16.30;99.90
7206;DHT22;3644;53.480;10.004;2023-03-31T16:45:45;16.30;99.90
7206;DHT22;3644;53.480;10.004;2023-03-31T16:48:13;16.20;99.90
7206;DHT22;3644;53.480;10.004;2023-03-31T16:50:38;16.20;99.90
7206;DHT22;3644;53.480;10.004;2023-03-31T16:53:05;16.20;99.90
7206;DHT22;3644;53.480;10.004;2023-03-31T16:55:31;16.10;99.90
7206;DHT22;3644;53.480;10.004;2023-03-31T16:57:57;16.10;99.90
7206;DHT22;3644;53.480;10.004;2023-03-31T17:00:30;16.10;99.90
7206;DHT22;3644;53.480;10.004;2023-03-31T17:02:57;16.10;99.90
7206;DHT22;3644;53.480;10.004;2023-03-31T17:05:23;16.00;99.90
7206;DHT22;3644;53.480;10.004;2023-03-31T17:07:49;16.00;99.90
7206;DHT22;3644;53.480;10.004;2023-03-31T17:10:15;16.00;99.90
7206;DHT22;3644;53.480;10.004;2023-03-31T17:12:41;16.00;99.90
7206;DHT22;3644;53.480;10.004;2023-03-31T17:15:07;16.00;99.90
7206;DHT22;3644;53.480;10.004;2023-03-31T17:17:33;16.10;99.90
7206;DHT22;3644;53.480;10.004;2023-03-31T17:19:58;16.00;99.90
7206;DHT22;3644;53.480;10.004;2023-03-31T17:22:24;16.00;99.90
7206;DHT22;3644;53.480;10.004;2023-03-31T17:24:50;15.90;99.90
7206;DHT22;3644;53.480;10.004;2023-03-31T17:27:21;15.80;99.90
7206;DHT22;3644;53.480;10.004;2023-03-31T17:29:46;15.80;99.90
7206;DHT22;3644;53.480;10.004;2023-03-31T17:32:12;15.70;99.90
7206;DHT22;3644;53.480;10.004;2023-03-31T17:34:39;15.70;99.90
7206;DHT22;3644;53.480;10.004;2023-03-31T17:37:05;15.70;99.90
7206;DHT22;3644;53.480;10.004;2023-03-31T17:39:31;15.70;99.90
7206;DHT22;3644;53.480;10.004;2023-03-31T17:41:56;15.50;99.90
7206;DHT22;3644;53.480;10.004;2023-03-31T17:44:23;15.60;99.90
7206;DHT22;3644;53.480;10.004;2023-03-31T17:46:48;15.50;99.90
7206;DHT22;3644;53.480;10.004;2023-03-31T17:49:14;15.50;99.90
7206;DHT22;3644;53.480;10.004;2023-03-31T17:51:41;15.40;99.90
7206;DHT22;3644;53.480;10.004;2023-03-31T17:54:07;15.30;99.90
7206;DHT22;3644;53.480;10.004;2023-03-31T17:56:34;15.30;99.90
7206;DHT22;3644;53.480;10.004;2023-03-31T17:58:59;15.30;99.90
7206;DHT22;3644;53.480;10.004;2023-03-31T18:01:25;15.30;99.90
7206;DHT22;3644;53.480;10.004;2023-03-31T18:03:50;15.30;99.90
7206;DHT22;3644;53.480;10.004;2023-03-31T18:06:16;15.20;99.90
7206;DHT22;3644;53.480;10.004;2023-03-31T18:08:42;15.10;99.90
7206;DHT22;3644;53.480;10.004;2023-03-31T18:11:08;15.10;99.90
7206;DHT22;3644;53.480;10.004;2023-03-31T18:13:34;15.10;99.90
7206;DHT22;3644;53.480;10.004;2023-03-31T18:16:04;15.10;99.90
7206;DHT22;3644;53.480;10.004;2023-03-31T18:18:30;15.10;99.90
7206;DHT22;3644;53.480;10.004;2023-03-31T18:20:55;15.00;99.90
7206;DHT22;3644;53.480;10.004;2023-03-31T18:23:21;15.10;99.90
7206;DHT22;3644;53.480;10.004;2023-03-31T18:25:47;15.00;99.90
7206;DHT22;3644;53.480;10.004;2023-03-31T18:28:14;15.00;99.90
7206;DHT22;3644;53.480;10.004;2023-03-31T18:30:40;14.90;99.90
7206;DHT22;3644;53.480;10.004;2023-03-31T18:33:05;14.80;99.90